Time;durP1;ratioP1;P1;durP2;ratioP2;P2;SDS_P1;SDS_P2;PMS_P1;PMS_P2;Temp;Humidity;BMP_temperature;BMP_pressure;BME280_temperature;BME280_humidity;BME280_pressure;Samples;Min_cycle;Max_cycle;Signal;HPM_P1;HPM_P2
2021/01/11 00:00:17;;;;;;;22.43;14.57;;;;;;;;;;5049515;28;20331;-69
2021/01/11 00:02:42;;;;;;;24.17;14.80;;;;;;;;;;5048175;28;20205;-67
2021/01/11 00:05:07;;;;;;;27.13;16.60;;;;;;;;;;5030217;28;20642;-69
2021/01/11 00:07:33;;;;;;;23.93;16.40;;;;;;;;;;5047772;28;20201;-69
2021/01/11 00:09:58;;;;;;;27.37;16.93;;;;;;;;;;5030195;28;20265;-67
2021/01/11 00:12:23;;;;;;;25.70;15.83;;;;;;;;;;5032354;28;20288;-67
2021/01/11 00:14:48;;;;;;;25.00;16.20;;;;;;;;;;5049647;28;20196;-67
2021/01/11 00:17:13;;;;;;;25.47;16.20;;;;;;;;;;5047763;28;20182;-67
2021/01/11 00:19:39;;;;;;;27.10;17.50;;;;;;;;;;5048718;28;20189;-67
2021/01/11 00:22:04;;;;;;;25.83;16.20;;;;;;;;;;5050611;28;20191;-67
2021/01/11 00:24:29;;;;;;;30.20;17.33;;;;;;;;;;5046729;28;20182;-67
2021/01/11 00:26:56;;;;;;;27.27;18.00;;;;;;;;;;5048614;28;20221;-69
2021/01/11 00:29:22;;;;;;;27.57;16.50;;;;;;;;;;5049472;28;20636;-67
2021/01/11 00:31:47;;;;;;;26.63;18.03;;;;;;;;;;5045659;28;20178;-69
2021/01/11 00:34:12;;;;;;;27.20;17.53;;;;;;;;;;5046866;28;20204;-70
2021/01/11 00:36:38;;;;;;;29.37;17.83;;;;;;;;;;5051122;28;20178;-67
2021/01/11 00:39:03;;;;;;;27.60;18.03;;;;;;;;;;5051005;28;20181;-67
2021/01/11 00:41:28;;;;;;;26.30;16.90;;;;;;;;;;5054568;28;20177;-68
2021/01/11 00:43:53;;;;;;;26.40;16.53;;;;;;;;;;5051266;28;20209;-67
2021/01/11 00:46:22;;;;;;;30.10;18.90;;;;;;;;;;5050096;28;20209;-69
2021/01/11 00:48:48;;;;;;;32.03;19.17;;;;;;;;;;5048211;28;20243;-69
2021/01/11 00:51:13;;;;;;;26.00;17.27;;;;;;;;;;5051662;28;20201;-67
2021/01/11 00:53:38;;;;;;;31.40;19.30;;;;;;;;;;5051441;28;20204;-69
2021/01/11 00:56:03;;;;;;;28.70;17.63;;;;;;;;;;5050043;28;20616;-69
2021/01/11 00:58:29;;;;;;;29.97;18.80;;;;;;;;;;5046391;28;20264;-69
2021/01/11 01:00:54;;;;;;;31.30;20.70;;;;;;;;;;5054026;28;20182;-69
2021/01/11 01:03:19;;;;;;;31.83;18.30;;;;;;;;;;5047883;28;20739;-67
2021/01/11 01:05:44;;;;;;;30.48;19.65;;;;;;;;;;5052600;28;20184;-69
2021/01/11 01:08:09;;;;;;;31.43;19.77;;;;;;;;;;5049512;28;20775;-67
2021/01/11 01:10:34;;;;;;;30.30;18.73;;;;;;;;;;5038534;28;20189;-69
2021/01/11 01:13:00;;;;;;;29.17;18.97;;;;;;;;;;5049432;28;20202;-67
2021/01/11 01:15:25;;;;;;;31.40;19.67;;;;;;;;;;5046040;28;20188;-69
2021/01/11 01:17:50;;;;;;;29.87;19.67;;;;;;;;;;5048545;28;20221;-68
2021/01/11 01:20:15;;;;;;;34.07;20.73;;;;;;;;;;5050607;28;20206;-68
2021/01/11 01:22:47;;;;;;;31.30;20.47;;;;;;;;;;5048691;28;20205;-68
2021/01/11 01:25:13;;;;;;;31.97;20.00;;;;;;;;;;5050486;28;20228;-68
2021/01/11 01:27:38;;;;;;;30.60;20.23;;;;;;;;;;5030349;28;20202;-68
2021/01/11 01:30:04;;;;;;;29.03;20.73;;;;;;;;;;5049530;28;20393;-69
2021/01/11 01:32:29;;;;;;;31.23;20.23;;;;;;;;;;5046962;28;20707;-69
2021/01/11 01:34:54;;;;;;;30.53;19.33;;;;;;;;;;5052791;28;20276;-68
2021/01/11 01:37:20;;;;;;;31.07;21.13;;;;;;;;;;5044597;28;20182;-68
2021/01/11 01:39:45;;;;;;;32.37;21.00;;;;;;;;;;5053280;28;20182;-69
2021/01/11 01:42:10;;;;;;;34.70;22.30;;;;;;;;;;5049631;28;20273;-69
2021/01/11 01:44:35;;;;;;;39.03;24.07;;;;;;;;;;5048888;28;20184;-68
2021/01/11 01:47:00;;;;;;;33.17;22.03;;;;;;;;;;5049866;28;20253;-69
2021/01/11 01:49:26;;;;;;;32.63;21.03;;;;;;;;;;5044187;28;20185;-68
2021/01/11 01:51:51;;;;;;;32.20;21.60;;;;;;;;;;5048194;28;20268;-68
2021/01/11 01:54:17;;;;;;;32.10;21.23;;;;;;;;;;5035284;28;20201;-69
2021/01/11 01:56:42;;;;;;;31.47;21.00;;;;;;;;;;5047892;28;20190;-69
2021/01/11 01:59:07;;;;;;;34.67;22.70;;;;;;;;;;5048935;28;20185;-68
2021/01/11 02:01:33;;;;;;;36.77;23.83;;;;;;;;;;5045817;28;20252;-69
2021/01/11 02:03:59;;;;;;;35.50;21.93;;;;;;;;;;5050075;28;20212;-68
2021/01/11 02:06:26;;;;;;;35.13;23.27;;;;;;;;;;5048237;28;20173;-69
2021/01/11 02:09:00;;;;;;;34.00;22.17;;;;;;;;;;5049375;28;20212;-69
2021/01/11 02:11:40;;;;;;;40.23;23.43;;;;;;;;;;5030412;28;20197;-69
2021/01/11 02:14:24;;;;;;;36.10;23.17;;;;;;;;;;5047722;28;20217;-69
2021/01/11 02:16:58;;;;;;;36.50;23.27;;;;;;;;;;5033192;28;20264;-68
2021/01/11 02:19:40;;;;;;;37.23;23.13;;;;;;;;;;5047575;28;20545;-67
2021/01/11 02:22:10;;;;;;;37.90;25.43;;;;;;;;;;5051809;28;20659;-67
2021/01/11 02:25:01;;;;;;;34.73;23.70;;;;;;;;;;5049461;28;20213;-67
2021/01/11 02:27:35;;;;;;;39.13;25.27;;;;;;;;;;5014590;28;20205;-67
2021/01/11 02:30:19;;;;;;;41.20;25.53;;;;;;;;;;5046080;28;20239;-67
2021/01/11 02:32:56;;;;;;;38.07;24.37;;;;;;;;;;5046396;28;20208;-67
2021/01/11 02:35:22;;;;;;;39.50;25.20;;;;;;;;;;5047701;28;20552;-68
2021/01/11 02:37:48;;;;;;;41.23;25.47;;;;;;;;;;5031008;28;20187;-68
2021/01/11 02:40:13;;;;;;;39.70;25.30;;;;;;;;;;5046785;28;20251;-67
2021/01/11 02:42:39;;;;;;;40.03;26.57;;;;;;;;;;5045700;28;20285;-67
2021/01/11 02:45:05;;;;;;;44.50;26.27;;;;;;;;;;5047753;28;20265;-68
2021/01/11 02:47:37;;;;;;;36.90;23.97;;;;;;;;;;5046597;28;20204;-68
2021/01/11 02:50:03;;;;;;;41.73;26.20;;;;;;;;;;5043733;28;20182;-67
2021/01/11 02:52:34;;;;;;;37.63;24.57;;;;;;;;;;5042645;28;20216;-67
2021/01/11 02:55:03;;;;;;;39.73;24.83;;;;;;;;;;5045425;28;20174;-68
2021/01/11 02:57:32;;;;;;;46.43;27.20;;;;;;;;;;5045862;28;20181;-68
2021/01/11 02:59:59;;;;;;;45.73;28.17;;;;;;;;;;5047695;28;20672;-68
2021/01/11 03:02:27;;;;;;;43.70;26.73;;;;;;;;;;5040330;28;20193;-68
2021/01/11 03:04:52;;;;;;;44.83;29.10;;;;;;;;;;5043549;28;20189;-68
2021/01/11 03:07:17;;;;;;;47.97;29.17;;;;;;;;;;5047538;28;20587;-68
2021/01/11 03:09:43;;;;;;;46.83;29.23;;;;;;;;;;5053222;28;20170;-67
2021/01/11 03:12:09;;;;;;;48.27;26.97;;;;;;;;;;5048492;28;20181;-67
2021/01/11 03:14:34;;;;;;;45.50;28.47;;;;;;;;;;5042899;28;20205;-68
2021/01/11 03:16:59;;;;;;;48.20;28.77;;;;;;;;;;5044641;28;20178;-67
2021/01/11 03:19:25;;;;;;;49.03;28.80;;;;;;;;;;5046999;28;20253;-67
2021/01/11 03:21:50;;;;;;;49.87;29.13;;;;;;;;;;5050263;28;20648;-68
2021/01/11 03:24:16;;;;;;;47.47;28.37;;;;;;;;;;5051380;28;20227;-67
2021/01/11 03:26:41;;;;;;;49.07;30.60;;;;;;;;;;5026859;28;20655;-67
2021/01/11 03:29:06;;;;;;;52.83;31.03;;;;;;;;;;5046716;28;20205;-67
2021/01/11 03:31:32;;;;;;;51.50;31.30;;;;;;;;;;5045706;28;20181;-68
2021/01/11 03:33:57;;;;;;;48.33;28.53;;;;;;;;;;5022938;28;20281;-67
2021/01/11 03:36:22;;;;;;;50.50;30.27;;;;;;;;;;5046970;28;20647;-67
2021/01/11 03:38:48;;;;;;;52.10;31.03;;;;;;;;;;5047157;28;20681;-67
2021/01/11 03:41:13;;;;;;;57.03;30.73;;;;;;;;;;5048645;28;20181;-68
2021/01/11 03:43:39;;;;;;;56.03;29.50;;;;;;;;;;5049268;28;20197;-67
2021/01/11 03:46:05;;;;;;;53.83;30.90;;;;;;;;;;5045512;28;20182;-67
2021/01/11 03:48:30;;;;;;;57.87;31.10;;;;;;;;;;5043063;28;20300;-67
2021/01/11 03:50:55;;;;;;;55.33;32.73;;;;;;;;;;5053842;28;20646;-68
2021/01/11 03:53:20;;;;;;;58.33;31.10;;;;;;;;;;5044208;28;20251;-67
2021/01/11 03:55:46;;;;;;;57.90;31.33;;;;;;;;;;5048255;28;20197;-68
2021/01/11 03:58:11;;;;;;;52.67;30.13;;;;;;;;;;5048179;28;20182;-68
2021/01/11 04:00:36;;;;;;;62.90;32.03;;;;;;;;;;5041046;28;20635;-67
2021/01/11 04:03:04;;;;;;;63.07;31.73;;;;;;;;;;5049562;28;20210;-67
2021/01/11 04:05:30;;;;;;;56.53;31.00;;;;;;;;;;5051111;28;20667;-67
2021/01/11 04:07:55;;;;;;;62.33;31.30;;;;;;;;;;5045360;28;20252;-68
2021/01/11 04:10:20;;;;;;;64.77;31.90;;;;;;;;;;5051985;28;20178;-68
2021/01/11 04:12:45;;;;;;;61.00;30.93;;;;;;;;;;5051444;28;20276;-67
2021/01/11 04:15:11;;;;;;;59.80;32.27;;;;;;;;;;5050130;28;20182;-68
2021/01/11 04:17:36;;;;;;;60.03;32.97;;;;;;;;;;5050092;28;20663;-68
2021/01/11 04:20:02;;;;;;;59.50;31.77;;;;;;;;;;5052540;28;20709;-67
2021/01/11 04:22:27;;;;;;;61.23;32.97;;;;;;;;;;5045896;28;20238;-67
2021/01/11 04:24:52;;;;;;;62.90;32.17;;;;;;;;;;5034887;28;20227;-67
2021/01/11 04:27:21;;;;;;;62.47;31.67;;;;;;;;;;5045669;28;20178;-68
2021/01/11 04:29:46;;;;;;;66.67;33.27;;;;;;;;;;5051482;28;20178;-68
2021/01/11 04:32:11;;;;;;;60.23;30.63;;;;;;;;;;5049882;28;20235;-67
2021/01/11 04:34:36;;;;;;;64.93;32.80;;;;;;;;;;5053670;28;20682;-67
2021/01/11 04:37:02;;;;;;;66.00;31.10;;;;;;;;;;5049313;28;20308;-68
2021/01/11 04:39:27;;;;;;;60.43;32.40;;;;;;;;;;5053039;28;20173;-68
2021/01/11 04:41:52;;;;;;;56.40;29.37;;;;;;;;;;5035816;28;20182;-67
2021/01/11 04:44:19;;;;;;;54.10;29.47;;;;;;;;;;5050371;28;20206;-68
2021/01/11 04:46:44;;;;;;;61.63;31.23;;;;;;;;;;5029538;28;20177;-68
2021/01/11 04:49:10;;;;;;;57.70;30.40;;;;;;;;;;5056276;28;20205;-68
2021/01/11 04:51:38;;;;;;;63.13;31.53;;;;;;;;;;5052370;28;20166;-67
2021/01/11 04:54:04;;;;;;;61.90;30.20;;;;;;;;;;5031582;28;20208;-67
2021/01/11 04:56:29;;;;;;;57.07;30.27;;;;;;;;;;5047498;28;20177;-68
2021/01/11 04:58:58;;;;;;;62.83;31.60;;;;;;;;;;5050165;28;20272;-67
2021/01/11 05:01:27;;;;;;;61.07;31.60;;;;;;;;;;5050187;28;20753;-67
2021/01/11 05:03:59;;;;;;;56.57;31.07;;;;;;;;;;5043467;28;20201;-67
2021/01/11 05:06:24;;;;;;;54.70;30.47;;;;;;;;;;5033570;28;20392;-67
2021/01/11 05:08:50;;;;;;;58.47;29.63;;;;;;;;;;5051584;28;20306;-68
2021/01/11 05:11:15;;;;;;;56.83;30.10;;;;;;;;;;5050782;28;20539;-68
2021/01/11 05:13:40;;;;;;;52.97;28.90;;;;;;;;;;5049995;28;20697;-67
2021/01/11 05:16:12;;;;;;;55.70;28.17;;;;;;;;;;5047655;28;20178;-68
2021/01/11 05:18:37;;;;;;;49.30;26.90;;;;;;;;;;5052003;28;20560;-68
2021/01/11 05:21:03;;;;;;;48.90;26.90;;;;;;;;;;5048681;28;20170;-67
2021/01/11 05:23:33;;;;;;;52.00;28.03;;;;;;;;;;5047344;28;20690;-67
2021/01/11 05:25:58;;;;;;;54.10;29.80;;;;;;;;;;5047707;28;20256;-67
2021/01/11 05:28:23;;;;;;;47.03;27.47;;;;;;;;;;5050570;28;20633;-68
2021/01/11 05:30:49;;;;;;;46.03;27.93;;;;;;;;;;5052715;28;20372;-67
2021/01/11 05:33:22;;;;;;;45.73;25.80;;;;;;;;;;5048298;28;20610;-67
2021/01/11 05:36:00;;;;;;;42.47;26.17;;;;;;;;;;5032196;28;20209;-67
2021/01/11 05:38:31;;;;;;;48.80;27.57;;;;;;;;;;5049830;28;20193;-68
2021/01/11 05:41:11;;;;;;;46.83;26.67;;;;;;;;;;5049306;28;20327;-68
2021/01/11 05:43:36;;;;;;;48.57;28.37;;;;;;;;;;5049999;28;20254;-68
2021/01/11 05:46:20;;;;;;;57.80;30.03;;;;;;;;;;5047979;28;20182;-67
2021/01/11 05:48:54;;;;;;;45.17;27.53;;;;;;;;;;5050936;28;20291;-67
2021/01/11 05:51:23;;;;;;;55.23;30.00;;;;;;;;;;5050020;28;20716;-67
2021/01/11 05:53:48;;;;;;;52.33;30.43;;;;;;;;;;5047654;28;20604;-67
2021/01/11 05:56:13;;;;;;;55.47;29.20;;;;;;;;;;5045070;28;20190;-67
2021/01/11 05:58:39;;;;;;;54.10;31.80;;;;;;;;;;5051543;28;20248;-67
2021/01/11 06:01:04;;;;;;;54.90;31.47;;;;;;;;;;5053785;28;20185;-67
2021/01/11 06:03:30;;;;;;;51.33;30.20;;;;;;;;;;5046095;28;20304;-67
2021/01/11 06:05:55;;;;;;;51.07;30.50;;;;;;;;;;5046016;28;20182;-67
2021/01/11 06:08:20;;;;;;;51.87;31.70;;;;;;;;;;5031487;28;20587;-68
2021/01/11 06:10:46;;;;;;;54.87;31.30;;;;;;;;;;5047510;28;20177;-67
2021/01/11 06:13:12;;;;;;;46.73;29.40;;;;;;;;;;5047300;28;20216;-68
2021/01/11 06:15:38;;;;;;;50.40;30.83;;;;;;;;;;5054356;28;20634;-67
2021/01/11 06:18:07;;;;;;;44.33;27.83;;;;;;;;;;5047970;28;20500;-67
2021/01/11 06:20:32;;;;;;;43.20;29.00;;;;;;;;;;5031367;28;20226;-68
2021/01/11 06:22:57;;;;;;;45.83;30.57;;;;;;;;;;5049644;28;20658;-67
2021/01/11 06:25:31;;;;;;;45.42;29.52;;;;;;;;;;5048870;28;20577;-67
2021/01/11 06:27:57;;;;;;;39.30;26.87;;;;;;;;;;5048394;28;20302;-68
2021/01/11 06:30:36;;;;;;;47.00;28.07;;;;;;;;;;5044622;28;20228;-67
2021/01/11 06:33:07;;;;;;;41.20;25.93;;;;;;;;;;5046695;28;20197;-67
2021/01/11 06:35:33;;;;;;;39.50;25.90;;;;;;;;;;5051412;28;20165;-67
2021/01/11 06:38:05;;;;;;;36.57;24.13;;;;;;;;;;5049798;28;20714;-67
2021/01/11 06:40:30;;;;;;;36.13;23.97;;;;;;;;;;5048080;28;20296;-68
2021/01/11 06:42:57;;;;;;;34.43;23.30;;;;;;;;;;5052312;28;20293;-68
2021/01/11 06:45:35;;;;;;;34.20;22.97;;;;;;;;;;5047794;28;20186;-67
2021/01/11 06:48:02;;;;;;;36.40;22.17;;;;;;;;;;5046132;28;20289;-68
2021/01/11 06:50:29;;;;;;;33.93;22.63;;;;;;;;;;5050613;28;20176;-67
2021/01/11 06:52:58;;;;;;;30.03;20.67;;;;;;;;;;5035041;28;20236;-67
2021/01/11 06:55:24;;;;;;;33.10;20.27;;;;;;;;;;5044490;28;20189;-69
2021/01/11 06:57:54;;;;;;;31.97;20.37;;;;;;;;;;5050972;28;20193;-69
2021/01/11 07:00:19;;;;;;;31.67;20.77;;;;;;;;;;5031933;28;20182;-69
2021/01/11 07:02:44;;;;;;;31.70;20.07;;;;;;;;;;5047716;28;20198;-67
2021/01/11 07:05:28;;;;;;;30.13;19.53;;;;;;;;;;5046310;28;20589;-67
2021/01/11 07:08:12;;;;;;;34.77;20.40;;;;;;;;;;5031909;28;20267;-67
2021/01/11 07:10:39;;;;;;;33.43;21.80;;;;;;;;;;5045793;28;20527;-67
2021/01/11 07:13:19;;;;;;;32.93;22.03;;;;;;;;;;5048556;28;20614;-67
2021/01/11 07:15:50;;;;;;;36.07;22.50;;;;;;;;;;5052432;28;20168;-67
2021/01/11 07:18:34;;;;;;;36.63;24.33;;;;;;;;;;5051214;28;20189;-67
2021/01/11 07:21:09;;;;;;;30.73;20.93;;;;;;;;;;5045878;28;20345;-67
2021/01/11 07:23:34;;;;;;;32.90;22.07;;;;;;;;;;5047019;28;20235;-67
2021/01/11 07:26:00;;;;;;;34.30;21.83;;;;;;;;;;5028347;28;20749;-67
2021/01/11 07:28:25;;;;;;;35.60;22.27;;;;;;;;;;5045321;28;20303;-67
2021/01/11 07:30:50;;;;;;;34.40;22.67;;;;;;;;;;5051756;28;20611;-67
2021/01/11 07:33:15;;;;;;;32.50;23.37;;;;;;;;;;5029990;28;20202;-66
2021/01/11 07:35:40;;;;;;;36.97;23.13;;;;;;;;;;5047138;28;20651;-67
2021/01/11 07:38:10;;;;;;;34.53;21.77;;;;;;;;;;5030620;28;20185;-67
2021/01/11 07:40:35;;;;;;;32.97;21.07;;;;;;;;;;5046273;28;20184;-66
2021/01/11 07:43:01;;;;;;;33.97;22.73;;;;;;;;;;5048104;28;20205;-66
2021/01/11 07:45:26;;;;;;;36.20;23.23;;;;;;;;;;5045838;28;20268;-66
2021/01/11 07:47:52;;;;;;;32.07;21.53;;;;;;;;;;5048168;28;20206;-67
2021/01/11 07:50:17;;;;;;;36.03;23.97;;;;;;;;;;5049033;28;20186;-67
2021/01/11 07:52:42;;;;;;;31.63;22.33;;;;;;;;;;5044440;28;20200;-67
2021/01/11 07:55:08;;;;;;;33.77;22.00;;;;;;;;;;5049886;28;20651;-66
2021/01/11 07:57:33;;;;;;;31.63;21.60;;;;;;;;;;5048140;28;20562;-67
2021/01/11 07:59:59;;;;;;;35.97;21.53;;;;;;;;;;5028864;28;20174;-67
2021/01/11 08:02:25;;;;;;;33.60;22.10;;;;;;;;;;5045523;28;20203;-67
2021/01/11 08:04:50;;;;;;;33.83;21.07;;;;;;;;;;5042939;28;20190;-69
2021/01/11 08:07:23;;;;;;;31.33;20.30;;;;;;;;;;5048773;28;20185;-67
2021/01/11 08:09:49;;;;;;;31.27;21.17;;;;;;;;;;5047141;28;20182;-69
2021/01/11 08:12:15;;;;;;;32.13;21.23;;;;;;;;;;5047361;28;20188;-67
2021/01/11 08:14:41;;;;;;;35.23;20.83;;;;;;;;;;5031237;28;20228;-67
2021/01/11 08:17:11;;;;;;;32.57;20.57;;;;;;;;;;5046015;28;20174;-67
2021/01/11 08:19:36;;;;;;;29.83;19.37;;;;;;;;;;5018846;28;20182;-67
2021/01/11 08:22:01;;;;;;;30.90;19.00;;;;;;;;;;5043990;28;20186;-67
2021/01/11 08:24:27;;;;;;;26.93;17.17;;;;;;;;;;5048360;28;20174;-67
2021/01/11 08:27:04;;;;;;;30.87;19.47;;;;;;;;;;5048336;28;20178;-67
2021/01/11 08:29:30;;;;;;;27.53;18.23;;;;;;;;;;5042556;28;20569;-67
2021/01/11 08:31:56;;;;;;;26.67;18.10;;;;;;;;;;5051301;28;20235;-67
2021/01/11 08:34:21;;;;;;;25.80;17.23;;;;;;;;;;5045027;28;20174;-67
2021/01/11 08:36:46;;;;;;;28.77;18.13;;;;;;;;;;5043137;28;20180;-66
2021/01/11 08:39:13;;;;;;;25.92;17.20;;;;;;;;;;5045208;28;20177;-68
2021/01/11 08:41:40;;;;;;;23.50;17.13;;;;;;;;;;5043877;28;20231;-67
2021/01/11 08:44:05;;;;;;;25.00;17.20;;;;;;;;;;5030074;28;20209;-68
2021/01/11 08:46:49;;;;;;;27.10;17.37;;;;;;;;;;5044756;28;20186;-67
2021/01/11 08:49:14;;;;;;;27.03;17.63;;;;;;;;;;5048805;28;20327;-67
2021/01/11 08:51:39;;;;;;;25.90;15.67;;;;;;;;;;5030644;28;20647;-67
2021/01/11 08:54:05;;;;;;;23.80;16.07;;;;;;;;;;5045737;28;20233;-67
2021/01/11 08:56:30;;;;;;;24.43;16.00;;;;;;;;;;5048564;28;20647;-67
2021/01/11 08:58:56;;;;;;;25.53;17.33;;;;;;;;;;5027089;28;20185;-68
2021/01/11 09:01:24;;;;;;;25.30;16.07;;;;;;;;;;5047447;28;20179;-70
2021/01/11 09:03:50;;;;;;;24.10;15.43;;;;;;;;;;5049375;28;20204;-67
2021/01/11 09:06:37;;;;;;;23.83;15.97;;;;;;;;;;5054523;28;20177;-69
2021/01/11 09:09:06;;;;;;;23.53;16.20;;;;;;;;;;5046207;28;20205;-69
2021/01/11 09:11:31;;;;;;;23.40;15.57;;;;;;;;;;5031343;28;20181;-67
2021/01/11 09:14:06;;;;;;;22.27;15.37;;;;;;;;;;5049299;28;20197;-67
2021/01/11 09:16:32;;;;;;;22.63;15.63;;;;;;;;;;5050665;28;20618;-66
2021/01/11 09:19:14;;;;;;;20.33;14.67;;;;;;;;;;5043986;28;20265;-70
2021/01/11 09:21:39;;;;;;;20.80;14.77;;;;;;;;;;5048233;28;20674;-67
2021/01/11 09:24:14;;;;;;;20.53;14.93;;;;;;;;;;5053624;28;20213;-68
2021/01/11 09:26:39;;;;;;;23.60;15.90;;;;;;;;;;5044233;28;20183;-68
2021/01/11 09:29:08;;;;;;;19.73;13.60;;;;;;;;;;5046435;28;20198;-68
2021/01/11 09:31:34;;;;;;;19.03;13.07;;;;;;;;;;5050316;28;20220;-68
2021/01/11 09:33:59;;;;;;;20.97;13.37;;;;;;;;;;5051605;28;20194;-68
2021/01/11 09:36:24;;;;;;;20.43;14.23;;;;;;;;;;5048416;28;20261;-68
2021/01/11 09:38:50;;;;;;;16.93;12.43;;;;;;;;;;5052915;28;20193;-68
2021/01/11 09:41:15;;;;;;;18.60;13.03;;;;;;;;;;5048387;28;20182;-68
2021/01/11 09:43:41;;;;;;;17.53;12.77;;;;;;;;;;5050907;28;20248;-67
2021/01/11 09:46:06;;;;;;;16.83;11.20;;;;;;;;;;5048552;28;20234;-68
2021/01/11 09:48:32;;;;;;;17.87;13.13;;;;;;;;;;5046785;28;20244;-68
2021/01/11 09:50:57;;;;;;;17.90;12.47;;;;;;;;;;5050284;28;20185;-68
2021/01/11 09:53:22;;;;;;;18.83;11.70;;;;;;;;;;5048438;28;20250;-68
2021/01/11 09:55:47;;;;;;;16.63;11.77;;;;;;;;;;5050531;28;20650;-68
2021/01/11 09:58:17;;;;;;;15.37;11.70;;;;;;;;;;5050740;28;20197;-68
2021/01/11 10:00:42;;;;;;;18.00;10.53;;;;;;;;;;5050801;28;20181;-68
2021/01/11 10:03:07;;;;;;;12.57;10.30;;;;;;;;;;5049560;28;20204;-68
2021/01/11 10:05:33;;;;;;;14.40;10.57;;;;;;;;;;5047944;28;20457;-68
2021/01/11 10:07:58;;;;;;;19.97;10.87;;;;;;;;;;5049816;28;20205;-68
2021/01/11 10:10:23;;;;;;;15.87;10.60;;;;;;;;;;5050514;28;20170;-68
2021/01/11 10:12:48;;;;;;;14.30;9.93;;;;;;;;;;5051054;28;20293;-68
2021/01/11 10:15:14;;;;;;;14.60;10.40;;;;;;;;;;5053824;28;20185;-68
2021/01/11 10:17:39;;;;;;;15.10;11.07;;;;;;;;;;5028082;28;20261;-67
2021/01/11 10:20:06;;;;;;;15.83;11.07;;;;;;;;;;5050480;28;20170;-68
2021/01/11 10:22:31;;;;;;;14.30;9.67;;;;;;;;;;5048615;28;20288;-68
2021/01/11 10:24:56;;;;;;;14.43;11.23;;;;;;;;;;5047493;28;20281;-68
2021/01/11 10:27:21;;;;;;;16.27;9.67;;;;;;;;;;5048300;28;20685;-68
2021/01/11 10:29:47;;;;;;;14.10;10.77;;;;;;;;;;5052767;28;20195;-68
2021/01/11 10:32:12;;;;;;;14.53;11.30;;;;;;;;;;5043376;28;20174;-68
2021/01/11 10:34:37;;;;;;;14.53;10.97;;;;;;;;;;5051819;28;20654;-68
2021/01/11 10:37:02;;;;;;;16.20;10.93;;;;;;;;;;5052623;28;20171;-68
2021/01/11 10:39:27;;;;;;;16.20;11.07;;;;;;;;;;5048513;28;20185;-68
2021/01/11 10:41:53;;;;;;;13.67;10.53;;;;;;;;;;5046917;28;20174;-68
2021/01/11 10:44:20;;;;;;;14.83;10.70;;;;;;;;;;5056545;28;20224;-67
2021/01/11 10:46:45;;;;;;;13.80;9.97;;;;;;;;;;5048412;28;20590;-68
2021/01/11 10:49:10;;;;;;;14.10;9.93;;;;;;;;;;5050248;28;20255;-68
2021/01/11 10:51:35;;;;;;;13.23;10.20;;;;;;;;;;5046648;28;20170;-68
2021/01/11 10:54:02;;;;;;;14.07;10.67;;;;;;;;;;5047271;28;20217;-68
2021/01/11 10:56:27;;;;;;;12.47;9.20;;;;;;;;;;5048067;28;20181;-67
2021/01/11 10:58:52;;;;;;;13.20;10.40;;;;;;;;;;5051760;28;20186;-68
2021/01/11 11:01:17;;;;;;;12.40;9.70;;;;;;;;;;5030772;28;20182;-68
2021/01/11 11:03:43;;;;;;;16.23;10.80;;;;;;;;;;5029746;28;20205;-68
2021/01/11 11:06:08;;;;;;;17.00;11.30;;;;;;;;;;5050132;28;20185;-68
2021/01/11 11:08:34;;;;;;;14.40;11.20;;;;;;;;;;5046639;28;20263;-68
2021/01/11 11:10:59;;;;;;;15.40;10.87;;;;;;;;;;5047945;28;20178;-68
2021/01/11 11:13:24;;;;;;;17.53;11.23;;;;;;;;;;5051323;28;20192;-68
2021/01/11 11:15:49;;;;;;;18.10;11.37;;;;;;;;;;5044662;28;20184;-68
2021/01/11 11:18:15;;;;;;;16.23;10.97;;;;;;;;;;5046232;28;20197;-68
2021/01/11 11:20:40;;;;;;;14.07;11.00;;;;;;;;;;5044635;28;20327;-68
2021/01/11 11:23:06;;;;;;;14.43;10.70;;;;;;;;;;5046751;28;20209;-68
2021/01/11 11:25:31;;;;;;;13.83;10.30;;;;;;;;;;5031316;28;20203;-68
2021/01/11 11:27:56;;;;;;;13.77;10.13;;;;;;;;;;5043349;28;20587;-68
2021/01/11 11:30:22;;;;;;;16.10;10.20;;;;;;;;;;5049076;28;20173;-68
2021/01/11 11:32:47;;;;;;;15.03;10.30;;;;;;;;;;5047765;28;20247;-68
2021/01/11 11:35:13;;;;;;;14.93;11.13;;;;;;;;;;5050630;28;20227;-68
2021/01/11 11:37:38;;;;;;;17.13;10.97;;;;;;;;;;5040171;28;20974;-68
2021/01/11 11:40:04;;;;;;;12.87;10.43;;;;;;;;;;5045864;28;20333;-69
2021/01/11 11:42:33;;;;;;;14.03;10.77;;;;;;;;;;5051755;28;20193;-67
2021/01/11 11:44:58;;;;;;;14.87;10.50;;;;;;;;;;5028818;28;20184;-69
2021/01/11 11:47:23;;;;;;;12.90;10.40;;;;;;;;;;5043242;28;20547;-69
2021/01/11 11:49:48;;;;;;;13.13;9.93;;;;;;;;;;5047653;28;20181;-69
2021/01/11 11:52:15;;;;;;;19.57;11.67;;;;;;;;;;5041192;28;20255;-68
2021/01/11 11:54:40;;;;;;;14.63;10.33;;;;;;;;;;5047980;28;20545;-68
2021/01/11 11:57:05;;;;;;;13.30;10.03;;;;;;;;;;5048203;28;20238;-69
2021/01/11 11:59:30;;;;;;;14.27;10.20;;;;;;;;;;5043215;28;20193;-68
2021/01/11 12:01:56;;;;;;;14.33;10.63;;;;;;;;;;5045658;28;20299;-69
2021/01/11 12:04:21;;;;;;;14.83;9.40;;;;;;;;;;5031842;28;20182;-68
2021/01/11 12:06:46;;;;;;;14.33;10.37;;;;;;;;;;5026754;28;20247;-68
2021/01/11 12:09:11;;;;;;;15.85;10.48;;;;;;;;;;5028673;28;20202;-68
2021/01/11 12:11:44;;;;;;;13.03;10.47;;;;;;;;;;5045482;28;20174;-68
2021/01/11 12:14:09;;;;;;;17.13;11.73;;;;;;;;;;5046207;28;20201;-68
2021/01/11 12:16:34;;;;;;;17.13;11.27;;;;;;;;;;5052154;28;20189;-68
2021/01/11 12:19:00;;;;;;;16.57;10.73;;;;;;;;;;5051871;28;20192;-69
2021/01/11 12:21:29;;;;;;;20.27;11.40;;;;;;;;;;5044699;28;20651;-69
2021/01/11 12:23:54;;;;;;;14.03;11.50;;;;;;;;;;5047753;28;20727;-69
2021/01/11 12:26:19;;;;;;;14.67;11.10;;;;;;;;;;5029471;28;20232;-69
2021/01/11 12:28:45;;;;;;;15.90;10.73;;;;;;;;;;5047491;28;20296;-69
2021/01/11 12:31:10;;;;;;;14.27;10.97;;;;;;;;;;5050622;28;20178;-68
2021/01/11 12:33:35;;;;;;;15.07;10.90;;;;;;;;;;5035389;28;20377;-69
2021/01/11 12:36:00;;;;;;;17.90;11.63;;;;;;;;;;5051745;28;20685;-68
2021/01/11 12:38:25;;;;;;;15.20;11.77;;;;;;;;;;5047070;28;20284;-68
2021/01/11 12:40:50;;;;;;;15.73;11.17;;;;;;;;;;5034165;28;20556;-69
2021/01/11 12:43:16;;;;;;;16.03;11.10;;;;;;;;;;5047293;28;20251;-69
2021/01/11 12:45:41;;;;;;;13.97;10.80;;;;;;;;;;5046173;28;20185;-68
2021/01/11 12:48:07;;;;;;;16.33;10.37;;;;;;;;;;5051968;28;20703;-68
2021/01/11 12:50:32;;;;;;;16.87;10.90;;;;;;;;;;5051495;28;20214;-68
2021/01/11 12:52:57;;;;;;;15.23;10.80;;;;;;;;;;5047082;28;20193;-69
2021/01/11 12:55:22;;;;;;;19.00;11.33;;;;;;;;;;5054755;28;20550;-68
2021/01/11 12:57:47;;;;;;;13.37;10.70;;;;;;;;;;5055309;28;20186;-69
2021/01/11 13:00:13;;;;;;;15.33;11.20;;;;;;;;;;5047711;28;20182;-67
2021/01/11 13:02:38;;;;;;;14.57;10.83;;;;;;;;;;5031905;28;20251;-68
2021/01/11 13:05:03;;;;;;;16.83;11.03;;;;;;;;;;5047914;28;20394;-68
2021/01/11 13:07:28;;;;;;;14.17;10.37;;;;;;;;;;5048270;28;20185;-68
2021/01/11 13:09:54;;;;;;;14.87;10.33;;;;;;;;;;5033834;28;20278;-68
2021/01/11 13:12:19;;;;;;;14.97;11.13;;;;;;;;;;5047534;28;20201;-68
2021/01/11 13:14:44;;;;;;;16.33;10.67;;;;;;;;;;5049916;28;20256;-68
2021/01/11 13:17:09;;;;;;;14.77;10.67;;;;;;;;;;5047440;28;20192;-68
2021/01/11 13:19:35;;;;;;;16.47;11.30;;;;;;;;;;5047766;28;20181;-68
2021/01/11 13:22:00;;;;;;;14.17;10.53;;;;;;;;;;5049458;28;20221;-68
2021/01/11 13:24:25;;;;;;;16.33;11.38;;;;;;;;;;5050079;28;20173;-68
2021/01/11 13:26:51;;;;;;;17.63;10.87;;;;;;;;;;5049354;28;20188;-69
2021/01/11 13:29:16;;;;;;;17.07;11.20;;;;;;;;;;5047728;28;20201;-69
2021/01/11 13:31:44;;;;;;;18.93;11.57;;;;;;;;;;5051591;28;20185;-68
2021/01/11 13:34:09;;;;;;;17.90;11.53;;;;;;;;;;5049785;28;20210;-68
2021/01/11 13:36:35;;;;;;;14.90;10.70;;;;;;;;;;5029428;28;20180;-69
2021/01/11 13:39:03;;;;;;;15.87;10.77;;;;;;;;;;5048580;28;20208;-69
2021/01/11 13:41:31;;;;;;;14.23;10.27;;;;;;;;;;5044714;28;20180;-68
2021/01/11 13:43:56;;;;;;;16.47;12.03;;;;;;;;;;5049027;28;20384;-68
2021/01/11 13:46:25;;;;;;;19.23;10.60;;;;;;;;;;5032870;28;20276;-68
2021/01/11 13:48:50;;;;;;;15.70;11.50;;;;;;;;;;5051495;28;20198;-68
2021/01/11 13:51:15;;;;;;;13.47;9.50;;;;;;;;;;5046772;28;20174;-69
2021/01/11 13:53:41;;;;;;;16.60;11.53;;;;;;;;;;5047487;28;20210;-68
2021/01/11 13:56:08;;;;;;;14.47;11.23;;;;;;;;;;5048707;28;20248;-68
2021/01/11 13:58:33;;;;;;;12.93;9.70;;;;;;;;;;5050613;28;20173;-68
2021/01/11 14:00:59;;;;;;;15.03;10.83;;;;;;;;;;5045729;28;20192;-68
2021/01/11 14:03:24;;;;;;;14.90;10.93;;;;;;;;;;5033560;28;20626;-68
2021/01/11 14:05:50;;;;;;;18.13;11.93;;;;;;;;;;5050238;28;20277;-68
2021/01/11 14:08:15;;;;;;;12.70;10.30;;;;;;;;;;5055356;28;20216;-68
2021/01/11 14:10:40;;;;;;;14.27;10.40;;;;;;;;;;5044295;28;20235;-69
2021/01/11 14:13:05;;;;;;;14.57;11.27;;;;;;;;;;5046023;28;20193;-69
2021/01/11 14:15:31;;;;;;;15.97;11.47;;;;;;;;;;5042157;28;20188;-69